Time;durP1;ratioP1;P1;durP2;ratioP2;P2;SDS_P1;SDS_P2;PMS_P1;PMS_P2;Temp;Humidity;BMP_temperature;BMP_pressure;BME280_temperature;BME280_humidity;BME280_pressure;Samples;Min_cycle;Max_cycle;Signal;HPM_P1;HPM_P2
2023/05/27 00:01:08;;;;;;;6.70;4.00;;;;;;;6.29;100.00;102142.19;5071619;28;20082;-84
2023/05/27 00:03:35;;;;;;;9.43;3.67;;;;;;;6.24;100.00;102144.72;5069198;28;20036;-83
2023/05/27 00:06:02;;;;;;;7.10;3.53;;;;;;;6.10;100.00;102148.78;5052370;28;20044;-83
2023/05/27 00:08:29;;;;;;;10.50;3.70;;;;;;;6.03;100.00;102150.38;5066787;28;20099;-83
2023/05/27 00:10:55;;;;;;;12.50;4.47;;;;;;;6.05;100.00;102147.78;5055788;28;20129;-83
2023/05/27 00:13:23;;;;;;;8.13;3.37;;;;;;;6.03;100.00;102153.00;5070964;28;20043;-84
2023/05/27 00:15:50;;;;;;;10.07;3.23;;;;;;;6.02;100.00;102153.88;5057785;28;20039;-84
2023/05/27 00:18:17;;;;;;;9.93;4.07;;;;;;;6.00;100.00;102149.44;5068149;28;20504;-85
2023/05/27 00:20:44;;;;;;;6.43;3.87;;;;;;;5.94;100.00;102155.44;5056238;28;20044;-84
2023/05/27 00:23:11;;;;;;;10.10;4.07;;;;;;;5.91;100.00;102144.88;5074339;28;20055;-85
2023/05/27 00:25:38;;;;;;;6.10;3.10;;;;;;;5.84;100.00;102141.19;5068324;28;20135;-86
2023/05/27 00:28:04;;;;;;;5.73;3.20;;;;;;;5.80;100.00;102142.00;5085151;28;20063;-83
2023/05/27 00:30:31;;;;;;;5.83;3.07;;;;;;;5.76;100.00;102149.75;5068503;28;20047;-85
2023/05/27 00:32:58;;;;;;;7.53;3.20;;;;;;;5.72;100.00;102143.56;5060627;28;20099;-85
2023/05/27 00:35:25;;;;;;;9.00;4.10;;;;;;;5.71;100.00;102143.50;5067403;28;20043;-85
2023/05/27 00:37:52;;;;;;;8.20;4.33;;;;;;;5.72;100.00;102140.03;5086937;28;20044;-85
2023/05/27 00:40:21;;;;;;;5.73;3.30;;;;;;;5.71;100.00;102140.88;5052054;28;20090;-86
2023/05/27 00:42:48;;;;;;;7.07;3.20;;;;;;;5.74;100.00;102141.84;5083720;28;20039;-85
2023/05/27 00:45:15;;;;;;;6.60;3.40;;;;;;;5.61;100.00;102140.66;5081357;28;20063;-82
2023/05/27 00:47:41;;;;;;;5.67;3.77;;;;;;;5.52;100.00;102137.81;5076097;28;20528;-85
2023/05/27 00:50:09;;;;;;;8.57;3.40;;;;;;;5.50;100.00;102151.75;5086331;28;20043;-85
2023/05/27 00:52:35;;;;;;;8.87;4.20;;;;;;;5.48;100.00;102143.84;5072445;28;20054;-84
2023/05/27 00:55:02;;;;;;;8.70;3.60;;;;;;;5.47;100.00;102143.84;5074560;28;20097;-85
2023/05/27 00:57:29;;;;;;;7.97;4.17;;;;;;;5.40;100.00;102144.53;5084555;28;20036;-84
2023/05/27 00:59:56;;;;;;;6.77;4.10;;;;;;;5.39;100.00;102142.75;5072624;28;20064;-83
2023/05/27 01:02:23;;;;;;;5.87;3.57;;;;;;;5.41;100.00;102141.06;5099484;27;20039;-82
2023/05/27 01:04:50;;;;;;;5.30;3.53;;;;;;;5.39;100.00;102146.25;5085099;28;20489;-83
2023/05/27 01:07:26;;;;;;;8.10;4.23;;;;;;;5.39;100.00;102138.41;5073197;28;20040;-85
2023/05/27 01:09:55;;;;;;;7.17;3.80;;;;;;;5.26;100.00;102133.69;5090383;28;20039;-85
2023/05/27 01:12:40;;;;;;;7.20;3.20;;;;;;;5.23;100.00;102136.25;5093769;28;20113;-84
2023/05/27 01:15:07;;;;;;;7.93;3.77;;;;;;;5.14;100.00;102142.16;5090338;28;20039;-85
2023/05/27 01:17:37;;;;;;;8.40;3.83;;;;;;;5.08;100.00;102140.25;5090340;28;20066;-84
2023/05/27 01:20:06;;;;;;;6.90;4.43;;;;;;;5.03;100.00;102144.47;5085486;28;20131;-85
2023/05/27 01:22:33;;;;;;;8.83;3.67;;;;;;;5.01;100.00;102148.78;5097209;28;20446;-85
2023/05/27 01:25:00;;;;;;;8.40;3.63;;;;;;;5.01;100.00;102145.28;5085347;28;20059;-83
2023/05/27 01:27:26;;;;;;;6.20;4.00;;;;;;;5.01;100.00;102143.53;5100171;27;20039;-86
2023/05/27 01:29:53;;;;;;;6.00;3.30;;;;;;;4.92;100.00;102138.06;5061805;28;20126;-86
2023/05/27 01:32:25;;;;;;;10.17;3.83;;;;;;;4.92;100.00;102139.81;5064981;28;20131;-85
2023/05/27 01:35:09;;;;;;;8.37;4.20;;;;;;;4.89;100.00;102138.00;5056459;28;20086;-82
2023/05/27 01:37:38;;;;;;;7.18;4.05;;;;;;;4.81;100.00;102150.00;5083057;28;20048;-84
2023/05/27 01:40:07;;;;;;;7.07;3.20;;;;;;;4.88;100.00;102146.72;5065576;28;20055;-86
2023/05/27 01:42:38;;;;;;;9.53;3.70;;;;;;;4.75;100.00;102144.59;5062247;28;20044;-83
2023/05/27 01:45:07;;;;;;;8.57;4.10;;;;;;;4.69;100.00;102141.81;5073324;28;20046;-85
2023/05/27 01:47:34;;;;;;;6.53;3.30;;;;;;;4.65;100.00;102138.22;5057216;28;20040;-84
2023/05/27 01:50:01;;;;;;;5.40;3.83;;;;;;;4.64;100.00;102140.81;5080676;28;20043;-86
2023/05/27 01:52:28;;;;;;;5.23;3.57;;;;;;;4.58;100.00;102133.66;5062229;28;20040;-82
2023/05/27 01:54:55;;;;;;;8.60;3.20;;;;;;;4.50;100.00;102133.44;5074158;28;20059;-84
2023/05/27 01:57:24;;;;;;;6.07;3.43;;;;;;;4.50;100.00;102136.06;5068126;28;20040;-85
2023/05/27 01:59:53;;;;;;;7.80;3.47;;;;;;;4.43;100.00;102141.97;5063659;28;20060;-85
2023/05/27 02:02:20;;;;;;;4.33;2.73;;;;;;;4.38;100.00;102138.34;5062584;28;20037;-82
2023/05/27 02:04:47;;;;;;;11.80;4.00;;;;;;;4.39;100.00;102139.22;5068665;28;20036;-85
2023/05/27 02:07:14;;;;;;;4.87;3.20;;;;;;;4.22;100.00;102150.09;5056807;28;20135;-84
2023/05/27 02:09:41;;;;;;;6.87;3.23;;;;;;;4.17;100.00;102148.19;5058389;28;20048;-84
2023/05/27 02:12:07;;;;;;;8.57;4.13;;;;;;;4.29;100.00;102145.94;5077430;27;20034;-84
2023/05/27 02:14:38;;;;;;;6.27;3.60;;;;;;;4.17;100.00;102137.72;5084785;28;20066;-83
2023/05/27 02:17:06;;;;;;;12.17;3.80;;;;;;;4.12;100.00;102144.53;5071606;28;20515;-84
2023/05/27 02:19:33;;;;;;;9.13;3.53;;;;;;;4.10;100.00;102143.59;5070074;28;20210;-84
2023/05/27 02:22:00;;;;;;;6.47;4.10;;;;;;;4.11;100.00;102145.38;5063441;28;20916;-84
2023/05/27 02:24:26;;;;;;;6.73;4.03;;;;;;;4.01;100.00;102143.34;5074089;28;20524;-84
2023/05/27 02:26:53;;;;;;;9.33;3.70;;;;;;;4.03;100.00;102141.66;5064724;28;20122;-84
2023/05/27 02:29:20;;;;;;;8.07;4.07;;;;;;;3.99;100.00;102137.19;5055925;28;20497;-84
2023/05/27 02:31:46;;;;;;;7.40;4.07;;;;;;;3.97;100.00;102138.88;5061107;28;20196;-84
2023/05/27 02:34:13;;;;;;;7.50;3.73;;;;;;;3.89;100.00;102133.41;5053683;28;20082;-83
2023/05/27 02:36:40;;;;;;;10.83;3.90;;;;;;;3.89;100.00;102130.78;5058772;28;20051;-83
2023/05/27 02:39:08;;;;;;;6.57;3.67;;;;;;;3.89;100.00;102122.94;5066343;28;20474;-85
2023/05/27 02:41:35;;;;;;;8.30;4.30;;;;;;;3.82;100.00;102127.09;5049294;28;20115;-83
2023/05/27 02:44:02;;;;;;;5.43;3.50;;;;;;;3.73;100.00;102134.66;5062482;28;20040;-84
2023/05/27 02:46:29;;;;;;;9.73;3.70;;;;;;;3.72;100.00;102143.34;5060966;28;20135;-84
2023/05/27 02:48:55;;;;;;;7.10;3.40;;;;;;;3.77;100.00;102144.34;5055195;28;20043;-85
2023/05/27 02:51:22;;;;;;;7.90;3.77;;;;;;;3.70;100.00;102137.19;5055076;28;20078;-83
2023/05/27 02:53:50;;;;;;;10.13;3.60;;;;;;;3.64;100.00;102137.00;5071145;28;20089;-83
2023/05/27 02:56:17;;;;;;;13.23;4.87;;;;;;;3.64;100.00;102147.44;5063728;28;20097;-83
2023/05/27 02:58:44;;;;;;;7.10;4.07;;;;;;;3.62;100.00;102146.50;5052104;28;20120;-84
2023/05/27 03:01:10;;;;;;;6.33;3.60;;;;;;;3.59;100.00;102154.25;5076200;28;20111;-83
2023/05/27 03:03:37;;;;;;;8.80;3.80;;;;;;;3.58;100.00;102152.47;5035908;28;20043;-83
2023/05/27 03:06:05;;;;;;;6.40;3.53;;;;;;;3.55;100.00;102148.03;5051298;28;20086;-83
2023/05/27 03:08:31;;;;;;;7.90;4.23;;;;;;;3.55;100.00;102148.03;5040244;28;20032;-82
2023/05/27 03:10:58;;;;;;;8.93;3.90;;;;;;;3.52;100.00;102153.16;5037622;28;20039;-83
2023/05/27 03:13:25;;;;;;;7.63;4.37;;;;;;;3.52;100.00;102149.66;5029967;28;20029;-83
2023/05/27 03:15:54;;;;;;;9.40;3.67;;;;;;;3.52;100.00;102155.75;5050381;28;20488;-83
2023/05/27 03:18:21;;;;;;;8.70;4.10;;;;;;;3.52;100.00;102147.91;5051146;28;20562;-83
2023/05/27 03:20:48;;;;;;;12.27;4.63;;;;;;;3.55;100.00;102148.03;5067324;28;20052;-82
2023/05/27 03:23:15;;;;;;;8.70;3.83;;;;;;;3.49;100.00;102145.22;5036285;28;20059;-84
2023/05/27 03:25:41;;;;;;;8.60;3.90;;;;;;;3.48;100.00;102150.41;5045858;28;20452;-83
2023/05/27 03:28:08;;;;;;;7.17;4.07;;;;;;;3.47;100.00;102159.97;5056810;28;20044;-83
2023/05/27 03:30:36;;;;;;;7.60;4.57;;;;;;;3.45;100.00;102150.28;5054263;28;20062;-84
2023/05/27 03:33:03;;;;;;;8.63;4.23;;;;;;;3.51;100.00;102151.38;5046492;28;20485;-83
2023/05/27 03:35:29;;;;;;;8.77;3.60;;;;;;;3.52;100.00;102144.41;5090711;28;20031;-84
2023/05/27 03:37:56;;;;;;;6.50;3.53;;;;;;;3.53;100.00;102146.19;5050740;28;20063;-84
2023/05/27 03:40:23;;;;;;;7.07;3.93;;;;;;;3.49;100.00;102146.94;5045631;28;20359;-82
2023/05/27 03:42:50;;;;;;;8.77;4.40;;;;;;;3.46;100.00;102150.34;5059471;28;20082;-82
2023/05/27 03:45:16;;;;;;;9.23;4.23;;;;;;;3.55;100.00;102145.44;5047627;28;20122;-85
2023/05/27 03:47:43;;;;;;;8.27;4.47;;;;;;;3.57;100.00;102151.59;5065026;28;21052;-82
2023/05/27 03:50:10;;;;;;;10.77;3.90;;;;;;;3.58;100.00;102153.34;5052347;28;20437;-82
2023/05/27 03:52:37;;;;;;;9.40;4.77;;;;;;;3.57;100.00;102150.69;5046187;28;20101;-83
2023/05/27 03:55:04;;;;;;;9.30;4.57;;;;;;;3.59;100.00;102155.13;5064260;28;20131;-81
2023/05/27 03:57:31;;;;;;;8.70;4.43;;;;;;;3.57;100.00;102151.59;5062730;28;20527;-83
2023/05/27 03:59:57;;;;;;;8.27;4.77;;;;;;;3.58;100.00;102153.34;5044650;28;20480;-83
2023/05/27 04:02:24;;;;;;;10.67;4.03;;;;;;;3.62;100.00;102160.47;5051775;28;20090;-84
2023/05/27 04:04:51;;;;;;;17.57;5.13;;;;;;;3.68;100.00;102154.53;5051651;28;20291;-84
2023/05/27 04:07:18;;;;;;;23.47;5.67;;;;;;;3.75;100.00;102153.88;5034076;28;20032;-84
2023/05/27 04:09:45;;;;;;;12.20;4.83;;;;;;;3.78;100.00;102153.97;5050242;28;20110;-84
2023/05/27 04:12:12;;;;;;;8.47;4.20;;;;;;;3.72;100.00;102155.53;5059207;28;20039;-83
2023/05/27 04:14:38;;;;;;;7.53;4.23;;;;;;;3.72;100.00;102153.81;5046582;28;20050;-83
2023/05/27 04:17:05;;;;;;;11.13;4.40;;;;;;;3.85;100.00;102150.72;5045590;28;20487;-84
2023/05/27 04:19:32;;;;;;;9.43;4.90;;;;;;;3.97;100.00;102157.16;5048790;28;20073;-85
2023/05/27 04:21:59;;;;;;;7.90;3.77;;;;;;;3.98;100.00;102156.31;5060311;28;20043;-83
2023/05/27 04:24:26;;;;;;;8.63;4.10;;;;;;;3.94;100.00;102158.81;5076387;28;20043;-82
2023/05/27 04:26:53;;;;;;;7.80;4.17;;;;;;;4.08;100.00;102161.88;5068104;28;20036;-83
2023/05/27 04:29:22;;;;;;;8.37;4.07;;;;;;;4.05;100.00;102166.13;5060685;28;20059;-83
2023/05/27 04:31:50;;;;;;;8.27;4.00;;;;;;;4.12;100.00;102171.59;5046881;28;20428;-82
2023/05/27 04:34:17;;;;;;;9.60;3.87;;;;;;;4.10;100.00;102169.75;5045560;28;20044;-83
2023/05/27 04:36:49;;;;;;;5.50;3.57;;;;;;;4.21;100.00;102168.38;5058523;28;20131;-84
2023/05/27 04:39:16;;;;;;;9.07;4.33;;;;;;;4.21;100.00;102163.16;5070348;28;20066;-84
2023/05/27 04:41:44;;;;;;;8.97;3.80;;;;;;;4.30;100.00;102154.66;5061519;28;20035;-84
2023/05/27 04:44:11;;;;;;;16.80;4.17;;;;;;;4.39;100.00;102165.41;5047367;28;20040;-82
2023/05/27 04:46:43;;;;;;;11.70;4.33;;;;;;;4.35;100.00;102169.63;5047698;28;20652;-83
2023/05/27 04:49:10;;;;;;;8.30;5.47;;;;;;;4.50;100.00;102169.19;5048151;28;20036;-81
2023/05/27 04:51:37;;;;;;;11.23;4.97;;;;;;;4.49;100.00;102170.94;5051217;28;20044;-82
2023/05/27 04:54:05;;;;;;;13.53;5.30;;;;;;;4.48;100.00;102168.28;5069916;28;20078;-82
2023/05/27 04:56:33;;;;;;;14.47;5.60;;;;;;;4.79;100.00;102165.69;5066611;28;20036;-81
2023/05/27 04:58:59;;;;;;;10.83;5.50;;;;;;;4.99;100.00;102162.69;5088947;28;20044;-82
2023/05/27 05:01:28;;;;;;;11.40;5.73;;;;;;;5.07;100.00;102161.16;5073726;28;20043;-82
2023/05/27 05:04:12;;;;;;;9.30;5.33;;;;;;;5.23;100.00;102158.09;5064978;28;20496;-82
2023/05/27 05:06:39;;;;;;;12.33;5.33;;;;;;;5.78;100.00;102154.16;5051466;28;20098;-81
2023/05/27 05:09:08;;;;;;;10.60;4.63;;;;;;;6.06;100.00;102150.47;5043712;28;20145;-81
2023/05/27 05:11:35;;;;;;;5.77;4.63;;;;;;;6.39;100.00;102144.13;5074349;28;20046;-81
2023/05/27 05:14:02;;;;;;;8.77;4.30;;;;;;;6.28;100.00;102143.03;5061269;28;20376;-82
2023/05/27 05:16:29;;;;;;;8.47;4.50;;;;;;;6.34;100.00;102140.56;5068155;28;20050;-81
2023/05/27 05:18:57;;;;;;;10.10;5.17;;;;;;;6.20;100.00;102143.75;5060266;28;20050;-82
2023/05/27 05:21:23;;;;;;;10.10;5.00;;;;;;;6.20;100.00;102137.63;5061365;28;20127;-82
2023/05/27 05:23:50;;;;;;;9.53;4.83;;;;;;;6.32;100.00;102134.41;5075351;27;20480;-81
2023/05/27 05:26:17;;;;;;;9.90;4.87;;;;;;;6.67;100.00;102133.34;5079562;28;20131;-81
2023/05/27 05:28:43;;;;;;;10.40;4.90;;;;;;;7.48;100.00;102139.13;5079208;28;20174;-81
2023/05/27 05:31:10;;;;;;;8.33;4.80;;;;;;;7.83;100.00;102137.03;5071294;28;20090;-81
2023/05/27 05:33:37;;;;;;;11.83;4.63;;;;;;;8.05;100.00;102136.47;5070890;28;20036;-81
2023/05/27 05:36:03;;;;;;;8.73;5.20;;;;;;;8.88;100.00;102134.84;5077117;28;20035;-82
2023/05/27 05:38:30;;;;;;;9.50;4.57;;;;;;;9.72;100.00;102138.19;5068599;28;20066;-81
2023/05/27 05:40:57;;;;;;;8.68;5.35;;;;;;;11.26;94.65;102129.03;5092016;27;20334;-82
2023/05/27 05:43:25;;;;;;;8.00;4.35;;;;;;;13.14;81.65;102123.09;5072081;28;20036;-82
2023/05/27 05:45:52;;;;;;;6.45;4.15;;;;;;;14.84;69.26;102134.53;5080483;28;20098;-84
2023/05/27 05:48:19;;;;;;;7.25;4.00;;;;;;;16.27;61.91;102123.16;5042262;28;20043;-83
2023/05/27 05:50:46;;;;;;;5.07;3.63;;;;;;;17.19;58.26;102121.09;5054776;28;20469;-82
2023/05/27 05:53:13;;;;;;;7.00;3.00;;;;;;;18.31;51.95;102129.66;5071666;28;20046;-83
2023/05/27 05:55:40;;;;;;;6.10;2.95;;;;;;;18.97;51.40;102129.44;5090397;28;20232;-83
2023/05/27 05:58:07;;;;;;;6.60;3.83;;;;;;;18.80;50.71;102129.97;5053899;28;20044;-83
2023/05/27 06:00:35;;;;;;;5.10;2.58;;;;;;;19.30;50.00;102123.91;5060342;28;20032;-82
2023/05/27 06:03:01;;;;;;;7.07;3.33;;;;;;;19.43;49.23;102130.63;5086817;28;20043;-81
2023/05/27 06:05:28;;;;;;;5.00;3.45;;;;;;;19.48;50.17;102130.44;5078585;28;20093;-81
2023/05/27 06:07:55;;;;;;;3.60;2.75;;;;;;;19.12;51.18;102137.00;5049783;28;20036;-82
2023/05/27 06:10:22;;;;;;;4.03;2.42;;;;;;;18.61;51.06;102136.78;5045028;28;20721;-82
2023/05/27 06:12:48;;;;;;;5.22;2.20;;;;;;;17.87;53.52;102134.50;5069912;28;20029;-83
2023/05/27 06:15:15;;;;;;;7.15;2.53;;;;;;;17.75;54.67;102142.84;5065351;28;20046;-82
2023/05/27 06:17:43;;;;;;;4.32;2.92;;;;;;;17.55;54.45;102138.84;5056925;28;20054;-82
2023/05/27 06:20:10;;;;;;;6.28;2.35;;;;;;;17.24;55.38;102146.78;5088793;28;20040;-83
2023/05/27 06:22:37;;;;;;;3.33;1.90;;;;;;;17.27;54.01;102143.16;5057399;28;20032;-84
2023/05/27 06:25:04;;;;;;;3.40;2.10;;;;;;;17.19;52.49;102137.13;5085082;28;20046;-83
2023/05/27 06:27:31;;;;;;;6.07;2.25;;;;;;;16.72;55.33;102134.63;5069221;28;20055;-85
2023/05/27 06:29:57;;;;;;;2.95;1.85;;;;;;;16.76;54.69;102135.47;5054691;28;20635;-84
2023/05/27 06:32:24;;;;;;;5.28;1.80;;;;;;;17.15;55.57;102131.88;5064869;28;20114;-85
2023/05/27 06:34:51;;;;;;;4.88;2.20;;;;;;;17.17;52.58;102138.03;5054638;28;20090;-85
2023/05/27 06:37:18;;;;;;;4.20;2.15;;;;;;;17.22;52.20;102134.34;5078712;28;20054;-85
2023/05/27 06:39:44;;;;;;;3.63;1.90;;;;;;;17.27;55.20;102136.00;5078616;28;20163;-86
2023/05/27 06:42:11;;;;;;;3.45;1.75;;;;;;;17.37;53.15;102140.19;5052214;28;20040;-86
2023/05/27 06:44:38;;;;;;;4.70;1.90;;;;;;;16.99;47.32;102143.81;5071729;28;20035;-85
2023/05/27 06:47:05;;;;;;;6.28;1.50;;;;;;;16.85;47.17;102146.81;5067651;28;20130;-86
2023/05/27 06:49:32;;;;;;;4.70;1.48;;;;;;;16.97;48.29;102140.28;5050561;28;20036;-86
2023/05/27 06:51:59;;;;;;;2.97;1.70;;;;;;;17.08;48.36;102142.72;5082305;28;20113;-85
2023/05/27 06:54:25;;;;;;;4.15;1.77;;;;;;;17.23;47.33;102138.78;5064795;28;20056;-85
2023/05/27 06:56:52;;;;;;;3.33;1.40;;;;;;;17.38;47.43;102135.75;5055256;28;20074;-84
2023/05/27 06:59:19;;;;;;;2.75;1.55;;;;;;;17.47;46.47;102146.19;5072660;28;20064;-85
2023/05/27 07:01:45;;;;;;;2.67;1.55;;;;;;;17.53;44.74;102145.16;5066370;28;20035;-88
2023/05/27 07:04:12;;;;;;;4.45;1.63;;;;;;;17.63;43.52;102144.00;5061602;28;20047;-84
2023/05/27 07:06:39;;;;;;;1.67;1.20;;;;;;;17.83;42.95;102144.41;5060038;28;20047;-83
2023/05/27 07:09:06;;;;;;;1.98;1.25;;;;;;;17.71;43.48;102137.56;5052891;28;20067;-86
2023/05/27 07:11:33;;;;;;;2.67;1.00;;;;;;;18.15;44.78;102137.25;5070184;28;20479;-85
2023/05/27 07:13:59;;;;;;;2.80;1.30;;;;;;;18.34;42.59;102137.63;5056865;28;20066;-82
2023/05/27 07:16:26;;;;;;;2.03;1.27;;;;;;;18.44;41.92;102129.28;5069386;28;20105;-85
2023/05/27 07:18:53;;;;;;;3.47;1.30;;;;;;;18.48;40.45;102136.28;5064511;28;20035;-82
2023/05/27 07:21:20;;;;;;;4.15;1.73;;;;;;;18.53;41.22;102125.44;5053088;28;20033;-83
2023/05/27 07:23:46;;;;;;;171.10;20.63;;;;;;;18.53;42.52;102120.97;5067481;28;20089;-83
2023/05/27 07:26:13;;;;;;;8.27;2.08;;;;;;;18.74;41.82;102124.81;5053976;28;20036;-81
2023/05/27 07:28:40;;;;;;;4.35;1.40;;;;;;;18.65;40.57;102124.19;5068771;28;20122;-82
2023/05/27 07:31:07;;;;;;;3.72;1.30;;;;;;;18.72;41.18;102125.78;5047352;28;20085;-84
2023/05/27 07:33:33;;;;;;;2.67;1.23;;;;;;;18.94;39.61;102121.50;5077614;28;20032;-82
2023/05/27 07:36:00;;;;;;;130.55;17.00;;;;;;;19.16;41.16;102120.81;5063017;28;20112;-85
2023/05/27 07:38:27;;;;;;;1.88;1.38;;;;;;;19.45;40.22;102122.53;5054204;28;20032;-84
2023/05/27 07:40:54;;;;;;;2.92;1.40;;;;;;;19.43;37.41;102114.53;5066376;28;20089;-82
2023/05/27 07:43:20;;;;;;;2.25;1.23;;;;;;;19.17;37.02;102111.84;5052582;28;20086;-85
2023/05/27 07:45:47;;;;;;;2.20;1.52;;;;;;;19.33;38.12;102105.03;5048569;28;20062;-83
2023/05/27 07:48:14;;;;;;;3.65;1.40;;;;;;;19.58;38.71;102108.66;5058200;28;20569;-82
2023/05/27 07:50:41;;;;;;;1.15;1.02;;;;;;;19.18;37.70;102110.94;5073413;28;20499;-84
2023/05/27 07:53:08;;;;;;;3.22;1.48;;;;;;;19.37;38.88;102102.22;5073680;28;20035;-83
2023/05/27 07:55:35;;;;;;;2.03;1.20;;;;;;;19.23;37.21;102103.59;5079836;28;20118;-82
2023/05/27 07:58:01;;;;;;;1.92;1.23;;;;;;;19.17;38.64;102106.47;5060731;28;20082;-84
2023/05/27 08:00:28;;;;;;;2.38;0.95;;;;;;;19.52;37.17;102091.91;5068480;28;20081;-84
2023/05/27 08:02:55;;;;;;;2.17;1.30;;;;;;;19.13;36.49;102095.88;5056160;28;20497;-83
2023/05/27 08:05:22;;;;;;;2.50;1.10;;;;;;;19.41;37.92;102094.94;5071923;28;20050;-84
2023/05/27 08:07:48;;;;;;;2.53;1.40;;;;;;;18.95;38.42;102093.81;5070205;28;20100;-84
2023/05/27 08:10:15;;;;;;;3.08;1.67;;;;;;;19.50;39.48;102088.38;5062006;28;20078;-83
2023/05/27 08:12:42;;;;;;;2.45;1.38;;;;;;;19.91;39.89;102078.88;5063685;28;20036;-84
2023/05/27 08:15:08;;;;;;;2.15;1.27;;;;;;;20.07;37.35;102074.69;5056765;28;20097;-82
2023/05/27 08:17:35;;;;;;;1.63;1.10;;;;;;;20.01;37.65;102083.00;5071080;28;20044;-83
2023/05/27 08:20:03;;;;;;;2.30;1.25;;;;;;;20.07;37.24;102074.69;5059742;28;20044;-86
2023/05/27 08:22:30;;;;;;;3.47;1.45;;;;;;;20.22;37.15;102083.97;5060738;28;20062;-83
2023/05/27 08:24:57;;;;;;;1.70;1.08;;;;;;;20.49;36.08;102072.19;5075493;28;20032;-81
2023/05/27 08:27:43;;;;;;;3.15;1.30;;;;;;;20.79;34.97;102069.25;5077166;28;20116;-82
2023/05/27 08:30:11;;;;;;;2.47;1.20;;;;;;;20.87;34.12;102077.00;5069391;28;20122;-84
2023/05/27 08:32:40;;;;;;;2.05;1.00;;;;;;;20.77;34.67;102071.13;5043153;28;20086;-80
2023/05/27 08:35:07;;;;;;;1.83;1.00;;;;;;;20.70;33.84;102080.34;5061640;28;20028;-84
2023/05/27 08:37:34;;;;;;;2.65;1.10;;;;;;;20.69;32.94;102071.44;5063003;28;20126;-84
2023/05/27 08:40:01;;;;;;;6.03;1.75;;;;;;;20.91;32.98;102066.03;5069614;28;20066;-84
2023/05/27 08:42:28;;;;;;;261.67;32.55;;;;;;;20.30;32.66;102072.97;5041556;28;20067;-83
2023/05/27 08:44:55;;;;;;;9.20;2.28;;;;;;;20.52;32.02;102058.69;5066858;28;20114;-83
2023/05/27 08:47:22;;;;;;;3.38;1.20;;;;;;;20.48;33.54;102075.81;5052095;28;20039;-83
2023/05/27 08:49:49;;;;;;;1.55;0.85;;;;;;;20.70;31.74;102064.25;5061004;28;20047;-85
2023/05/27 08:52:20;;;;;;;1.70;1.27;;;;;;;20.40;31.95;102055.56;5061940;28;20036;-84
2023/05/27 08:54:47;;;;;;;2.30;1.00;;;;;;;20.38;33.59;102058.31;5076518;28;20040;-84
2023/05/27 08:57:16;;;;;;;32.97;5.55;;;;;;;20.56;33.40;102059.41;5050169;28;20054;-83
2023/05/27 08:59:44;;;;;;;2.95;1.25;;;;;;;20.34;33.89;102055.78;5056642;28;20043;-84
2023/05/27 09:02:12;;;;;;;2.25;1.10;;;;;;;20.70;34.70;102051.69;5070119;28;20074;-84
2023/05/27 09:04:40;;;;;;;3.03;1.10;;;;;;;20.91;33.66;102051.72;5070694;28;20131;-84
2023/05/27 09:07:07;;;;;;;9.00;2.00;;;;;;;21.02;33.92;102047.69;5064607;28;20489;-84
2023/05/27 09:09:34;;;;;;;4.28;1.55;;;;;;;20.71;32.89;102048.06;5048551;28;20063;-84
2023/05/27 09:12:02;;;;;;;88.22;13.38;;;;;;;20.78;33.43;102046.88;5049380;28;20134;-85
2023/05/27 09:14:31;;;;;;;1.58;1.23;;;;;;;20.00;33.84;102045.47;5074346;28;20035;-83
2023/05/27 09:17:05;;;;;;;6.30;1.50;;;;;;;20.34;34.27;102050.41;5076734;28;20413;-85
2023/05/27 09:19:32;;;;;;;8.63;1.20;;;;;;;20.22;33.49;102044.59;5071044;28;20059;-84
2023/05/27 09:21:59;;;;;;;4.40;1.20;;;;;;;20.49;32.00;102045.34;5059692;28;20040;-83
2023/05/27 09:24:26;;;;;;;3.22;1.23;;;;;;;20.73;32.89;102046.19;5067117;28;20070;-84
2023/05/27 09:26:54;;;;;;;2.85;1.30;;;;;;;20.27;33.15;102049.81;5068785;28;20032;-85
2023/05/27 09:29:23;;;;;;;6.75;1.77;;;;;;;20.49;33.04;102039.97;5050280;28;20036;-84
2023/05/27 09:31:54;;;;;;;2.35;1.30;;;;;;;20.94;33.50;102041.75;5055394;28;20050;-85
2023/05/27 09:34:21;;;;;;;2.90;1.20;;;;;;;21.24;31.93;102044.06;5090926;28;20028;-84
2023/05/27 09:36:50;;;;;;;2.05;0.90;;;;;;;21.59;31.78;102037.16;5050441;28;20032;-83
2023/05/27 09:39:19;;;;;;;43.10;5.88;;;;;;;21.68;30.38;102044.81;5073871;28;20051;-83
2023/05/27 09:41:55;;;;;;;3.00;1.08;;;;;;;21.84;29.22;102034.25;5066577;28;20071;-85
2023/05/27 09:44:27;;;;;;;1.60;1.13;;;;;;;21.69;30.26;102038.50;5058355;28;20064;-82
2023/05/27 09:46:54;;;;;;;3.25;1.50;;;;;;;21.89;30.27;102030.41;5068594;28;20036;-84
2023/05/27 09:49:22;;;;;;;2.42;1.00;;;;;;;22.06;31.54;102043.09;5074184;28;20616;-85
2023/05/27 09:51:48;;;;;;;2.13;1.52;;;;;;;21.77;31.67;102025.56;5063620;28;20042;-85
2023/05/27 09:54:18;;;;;;;3.53;2.15;;;;;;;21.96;31.15;102024.75;5065665;28;20033;-84
2023/05/27 09:56:48;;;;;;;3.38;1.20;;;;;;;22.03;30.95;102023.50;5054131;28;20078;-83
2023/05/27 09:59:14;;;;;;;177.63;23.30;;;;;;;21.92;31.62;102026.69;5058358;28;20066;-85
2023/05/27 10:01:47;;;;;;;4.70;1.75;;;;;;;22.28;30.88;102023.25;5046843;28;20321;-83
2023/05/27 10:04:16;;;;;;;3.45;1.30;;;;;;;22.26;31.36;102023.31;5084399;28;20028;-83
2023/05/27 10:06:44;;;;;;;2.55;1.25;;;;;;;22.32;30.96;102023.03;5060184;28;20047;-84
2023/05/27 10:09:13;;;;;;;121.30;16.63;;;;;;;22.54;30.21;102022.00;5056113;28;20070;-82
2023/05/27 10:11:40;;;;;;;22.58;2.85;;;;;;;22.05;30.24;102014.44;5092550;28;20078;-85
2023/05/27 10:14:07;;;;;;;2.88;1.63;;;;;;;22.12;31.26;102009.66;5070232;28;20134;-85
2023/05/27 10:16:34;;;;;;;157.45;21.13;;;;;;;22.36;31.13;102008.47;5074248;28;20080;-85
2023/05/27 10:19:01;;;;;;;3.38;1.23;;;;;;;22.37;29.87;102002.16;5094835;28;20081;-83
2023/05/27 10:21:30;;;;;;;3.40;1.80;;;;;;;22.26;30.67;102011.69;5053490;28;20097;-85
2023/05/27 10:23:59;;;;;;;4.18;3.10;;;;;;;22.51;30.27;102008.69;5056743;28;20082;-84
2023/05/27 10:26:39;;;;;;;2.55;1.60;;;;;;;22.57;28.95;102008.38;5086419;28;20055;-83
2023/05/27 10:29:11;;;;;;;8.27;7.57;;;;;;;22.53;29.39;102009.47;5057674;28;20043;-85
2023/05/27 10:31:50;;;;;;;2.20;1.38;;;;;;;22.58;28.96;101997.53;5059176;28;20086;-84
2023/05/27 10:34:19;;;;;;;4.10;1.92;;;;;;;22.21;28.56;101995.78;5067892;28;20032;-85
2023/05/27 10:36:46;;;;;;;2.88;1.40;;;;;;;22.08;29.78;101994.59;5059203;28;20507;-86
2023/05/27 10:39:18;;;;;;;2.85;1.20;;;;;;;21.90;30.10;101994.47;5056783;28;20067;-82
2023/05/27 10:41:52;;;;;;;1.95;1.40;;;;;;;22.41;30.55;101992.97;5069153;28;20044;-84
2023/05/27 10:44:45;;;;;;;2.17;1.00;;;;;;;22.45;28.49;101989.19;5057295;28;20040;-84
2023/05/27 10:47:13;;;;;;;1.60;1.00;;;;;;;22.72;29.23;101986.94;5050830;28;20055;-83
2023/05/27 10:49:41;;;;;;;23.73;4.55;;;;;;;22.60;28.69;101975.91;5049227;28;20036;-83
2023/05/27 10:52:11;;;;;;;5.28;1.50;;;;;;;22.67;28.44;101972.81;5072202;28;20042;-84
2023/05/27 10:54:38;;;;;;;2.05;1.30;;;;;;;22.64;28.46;101975.69;5056643;28;20036;-84
2023/05/27 10:57:06;;;;;;;2.65;1.30;;;;;;;22.48;28.95;101977.38;5063706;28;20100;-84
2023/05/27 10:59:41;;;;;;;3.17;1.33;;;;;;;22.52;29.20;101964.63;5056964;28;20048;-84
2023/05/27 11:02:07;;;;;;;2.38;1.30;;;;;;;22.51;29.97;101971.84;5071849;28;20033;-84
2023/05/27 11:04:35;;;;;;;2.20;1.15;;;;;;;22.48;30.02;101969.31;5053549;28;20063;-82
2023/05/27 11:07:03;;;;;;;2.30;1.20;;;;;;;22.25;29.73;101959.66;5073989;28;20547;-84
2023/05/27 11:09:51;;;;;;;3.90;1.55;;;;;;;22.42;30.35;101964.22;5048408;28;20759;-82
2023/05/27 11:12:19;;;;;;;2.97;1.10;;;;;;;22.73;29.53;101955.47;5068012;28;20572;-83
2023/05/27 11:14:49;;;;;;;3.08;1.30;;;;;;;22.56;28.61;101958.16;5074133;28;20060;-82
2023/05/27 11:17:17;;;;;;;5.07;1.10;;;;;;;22.85;28.95;101948.63;5074781;28;20130;-83
2023/05/27 11:19:47;;;;;;;2.42;1.30;;;;;;;22.93;29.22;101947.28;5057624;28;20036;-86
2023/05/27 11:22:14;;;;;;;1.98;1.50;;;;;;;23.05;28.47;101945.78;5067121;28;20115;-82
2023/05/27 11:24:41;;;;;;;1.33;0.93;;;;;;;22.88;28.00;101943.09;5069815;28;20032;-83
2023/05/27 11:27:13;;;;;;;1.60;1.08;;;;;;;22.91;29.00;101938.41;5067722;28;20123;-82